sensor_id;sensor_type;location;lat;lon;timestamp;pressure;altitude;pressure_sealevel;temperature;humidity
54038;BME280;39954;48.844;9.726;2023-07-13T00:01:16;96057.63;;;17.16;100.00
54038;BME280;39954;48.844;9.726;2023-07-13T00:02:18;96052.13;;;17.19;100.00
54038;BME280;39954;48.844;9.726;2023-07-13T00:03:23;96044.97;;;17.21;100.00
54038;BME280;39954;48.844;9.726;2023-07-13T00:04:29;96037.78;;;17.23;100.00
54038;BME280;39954;48.844;9.726;2023-07-13T00:05:34;96033.25;;;17.26;100.00
54038;BME280;39954;48.844;9.726;2023-07-13T00:06:37;96031.81;;;17.21;100.00
54038;BME280;39954;48.844;9.726;2023-07-13T00:07:41;96028.75;;;17.16;100.00
54038;BME280;39954;48.844;9.726;2023-07-13T00:08:43;96032.47;;;17.14;100.00
54038;BME280;39954;48.844;9.726;2023-07-13T00:09:49;96028.31;;;17.11;100.00
54038;BME280;39954;48.844;9.726;2023-07-13T00:10:52;96036.22;;;17.11;100.00
54038;BME280;39954;48.844;9.726;2023-07-13T00:11:57;96029.53;;;17.07;100.00
54038;BME280;39954;48.844;9.726;2023-07-13T00:12:59;96029.16;;;17.12;100.00
54038;BME280;39954;48.844;9.726;2023-07-13T00:14:04;96025.81;;;17.10;100.00
54038;BME280;39954;48.844;9.726;2023-07-13T00:15:13;96028.81;;;17.05;100.00
54038;BME280;39954;48.844;9.726;2023-07-13T00:16:18;96027.16;;;17.04;100.00
54038;BME280;39954;48.844;9.726;2023-07-13T00:17:20;96023.16;;;17.00;100.00
54038;BME280;39954;48.844;9.726;2023-07-13T00:18:25;96019.81;;;16.98;100.00
54038;BME280;39954;48.844;9.726;2023-07-13T00:19:30;96018.56;;;17.02;100.00
54038;BME280;39954;48.844;9.726;2023-07-13T00:20:37;96017.91;;;17.00;100.00
54038;BME280;39954;48.844;9.726;2023-07-13T00:21:40;96025.50;;;17.03;100.00
54038;BME280;39954;48.844;9.726;2023-07-13T00:22:46;96027.06;;;17.06;100.00
54038;BME280;39954;48.844;9.726;2023-07-13T00:23:49;96028.00;;;17.05;100.00
54038;BME280;39954;48.844;9.726;2023-07-13T00:24:54;96023.56;;;17.05;100.00
54038;BME280;39954;48.844;9.726;2023-07-13T00:25:58;96028.56;;;17.08;100.00
54038;BME280;39954;48.844;9.726;2023-07-13T00:27:03;96029.34;;;16.99;100.00
54038;BME280;39954;48.844;9.726;2023-07-13T00:28:05;96030.41;;;16.96;100.00
54038;BME280;39954;48.844;9.726;2023-07-13T00:29:10;96036.75;;;16.94;100.00
54038;BME280;39954;48.844;9.726;2023-07-13T00:30:13;96037.00;;;16.91;100.00
54038;BME280;39954;48.844;9.726;2023-07-13T00:31:18;96038.69;;;16.92;100.00
54038;BME280;39954;48.844;9.726;2023-07-13T00:32:20;96038.19;;;16.98;100.00
54038;BME280;39954;48.844;9.726;2023-07-13T00:33:27;96047.00;;;16.97;100.00
54038;BME280;39954;48.844;9.726;2023-07-13T00:34:32;96037.63;;;16.94;100.00
54038;BME280;39954;48.844;9.726;2023-07-13T00:35:37;96031.50;;;16.94;100.00
54038;BME280;39954;48.844;9.726;2023-07-13T00:36:41;96043.28;;;16.99;100.00
54038;BME280;39954;48.844;9.726;2023-07-13T00:37:45;96033.75;;;16.98;100.00
54038;BME280;39954;48.844;9.726;2023-07-13T00:38:48;96042.47;;;16.99;100.00
54038;BME280;39954;48.844;9.726;2023-07-13T00:43:39;96045.91;;;16.99;100.00
54038;BME280;39954;48.844;9.726;2023-07-13T00:45:02;96046.50;;;17.03;100.00
54038;BME280;39954;48.844;9.726;2023-07-13T00:46:24;96046.25;;;17.06;100.00
54038;BME280;39954;48.844;9.726;2023-07-13T00:47:29;96045.53;;;17.04;100.00
54038;BME280;39954;48.844;9.726;2023-07-13T00:48:34;96050.06;;;17.02;100.00
54038;BME280;39954;48.844;9.726;2023-07-13T00:49:43;96057.69;;;17.05;100.00
54038;BME280;39954;48.844;9.726;2023-07-13T00:50:49;96051.16;;;16.99;100.00
54038;BME280;39954;48.844;9.726;2023-07-13T00:51:57;96055.84;;;16.96;100.00
54038;BME280;39954;48.844;9.726;2023-07-13T00:53:03;96053.41;;;17.04;100.00
54038;BME280;39954;48.844;9.726;2023-07-13T00:54:09;96056.50;;;17.09;100.00
54038;BME280;39954;48.844;9.726;2023-07-13T00:55:17;96058.88;;;17.12;100.00
54038;BME280;39954;48.844;9.726;2023-07-13T00:56:20;96054.31;;;17.14;100.00
54038;BME280;39954;48.844;9.726;2023-07-13T00:57:22;96051.97;;;17.11;100.00
54038;BME280;39954;48.844;9.726;2023-07-13T00:58:28;96051.25;;;17.09;100.00
54038;BME280;39954;48.844;9.726;2023-07-13T00:59:31;96050.78;;;17.04;100.00
54038;BME280;39954;48.844;9.726;2023-07-13T01:00:38;96054.66;;;17.00;100.00
54038;BME280;39954;48.844;9.726;2023-07-13T01:01:41;96057.00;;;17.03;100.00
54038;BME280;39954;48.844;9.726;2023-07-13T01:02:46;96058.66;;;17.04;100.00
54038;BME280;39954;48.844;9.726;2023-07-13T01:03:49;96064.03;;;17.03;100.00
54038;BME280;39954;48.844;9.726;2023-07-13T01:04:58;96053.22;;;16.96;100.00
54038;BME280;39954;48.844;9.726;2023-07-13T01:06:01;96058.97;;;16.90;100.00
54038;BME280;39954;48.844;9.726;2023-07-13T01:07:06;96062.13;;;16.84;100.00
54038;BME280;39954;48.844;9.726;2023-07-13T01:08:09;96060.94;;;16.76;100.00
54038;BME280;39954;48.844;9.726;2023-07-13T01:09:14;96068.06;;;16.74;100.00
54038;BME280;39954;48.844;9.726;2023-07-13T01:10:16;96051.88;;;16.69;100.00
54038;BME280;39954;48.844;9.726;2023-07-13T01:11:21;96054.75;;;16.66;100.00
54038;BME280;39954;48.844;9.726;2023-07-13T01:12:24;96055.00;;;16.63;100.00
54038;BME280;39954;48.844;9.726;2023-07-13T01:13:28;96054.75;;;16.66;100.00
54038;BME280;39954;48.844;9.726;2023-07-13T01:14:31;96053.59;;;16.59;100.00
54038;BME280;39954;48.844;9.726;2023-07-13T01:15:37;96050.59;;;16.64;100.00
54038;BME280;39954;48.844;9.726;2023-07-13T01:16:41;96064.09;;;16.59;100.00
54038;BME280;39954;48.844;9.726;2023-07-13T01:17:46;96054.66;;;16.56;100.00
54038;BME280;39954;48.844;9.726;2023-07-13T01:18:49;96056.25;;;16.48;100.00
54038;BME280;39954;48.844;9.726;2023-07-13T01:19:54;96055.03;;;16.52;100.00
54038;BME280;39954;48.844;9.726;2023-07-13T01:21:01;96051.97;;;16.47;100.00
54038;BME280;39954;48.844;9.726;2023-07-13T01:22:08;96059.84;;;16.47;100.00
54038;BME280;39954;48.844;9.726;2023-07-13T01:23:11;96062.00;;;16.42;100.00
54038;BME280;39954;48.844;9.726;2023-07-13T01:24:17;96057.44;;;16.44;100.00
54038;BME280;39954;48.844;9.726;2023-07-13T01:25:20;96049.72;;;16.42;100.00
54038;BME280;39954;48.844;9.726;2023-07-13T01:26:26;96054.81;;;16.44;100.00
54038;BME280;39954;48.844;9.726;2023-07-13T01:27:30;96056.63;;;16.43;100.00
54038;BME280;39954;48.844;9.726;2023-07-13T01:28:33;96054.13;;;16.42;100.00
54038;BME280;39954;48.844;9.726;2023-07-13T01:29:39;96056.88;;;16.40;100.00
54038;BME280;39954;48.844;9.726;2023-07-13T01:30:45;96056.66;;;16.32;100.00
54038;BME280;39954;48.844;9.726;2023-07-13T01:31:50;96060.94;;;16.33;100.00
54038;BME280;39954;48.844;9.726;2023-07-13T01:32:53;96063.69;;;16.31;100.00
54038;BME280;39954;48.844;9.726;2023-07-13T01:33:57;96063.22;;;16.26;100.00
54038;BME280;39954;48.844;9.726;2023-07-13T01:35:00;96068.22;;;16.18;100.00
54038;BME280;39954;48.844;9.726;2023-07-13T01:36:08;96071.94;;;16.04;100.00
54038;BME280;39954;48.844;9.726;2023-07-13T01:37:11;96075.19;;;16.08;100.00
54038;BME280;39954;48.844;9.726;2023-07-13T01:38:19;96070.06;;;15.95;100.00
54038;BME280;39954;48.844;9.726;2023-07-13T01:39:22;96065.66;;;15.84;100.00
54038;BME280;39954;48.844;9.726;2023-07-13T01:40:28;96072.34;;;15.88;100.00
54038;BME280;39954;48.844;9.726;2023-07-13T01:41:30;96067.56;;;15.82;100.00
54038;BME280;39954;48.844;9.726;2023-07-13T01:42:36;96078.75;;;15.73;100.00
54038;BME280;39954;48.844;9.726;2023-07-13T01:43:38;96070.66;;;15.76;100.00
54038;BME280;39954;48.844;9.726;2023-07-13T01:44:43;96071.13;;;15.70;100.00
54038;BME280;39954;48.844;9.726;2023-07-13T01:45:45;96073.47;;;15.62;100.00
54038;BME280;39954;48.844;9.726;2023-07-13T01:46:50;96074.69;;;15.58;100.00
54038;BME280;39954;48.844;9.726;2023-07-13T01:47:53;96071.81;;;15.50;100.00
54038;BME280;39954;48.844;9.726;2023-07-13T01:48:57;96072.38;;;15.42;100.00
54038;BME280;39954;48.844;9.726;2023-07-13T01:50:00;96078.13;;;15.47;100.00
54038;BME280;39954;48.844;9.726;2023-07-13T01:51:07;96074.03;;;15.43;100.00
54038;BME280;39954;48.844;9.726;2023-07-13T01:52:09;96075.16;;;15.40;100.00
54038;BME280;39954;48.844;9.726;2023-07-13T01:53:14;96070.34;;;15.34;100.00
54038;BME280;39954;48.844;9.726;2023-07-13T01:54:16;96077.59;;;15.31;100.00
54038;BME280;39954;48.844;9.726;2023-07-13T01:55:21;96069.91;;;15.40;100.00
54038;BME280;39954;48.844;9.726;2023-07-13T01:56:24;96074.88;;;15.32;100.00
54038;BME280;39954;48.844;9.726;2023-07-13T01:57:26;96071.56;;;15.41;100.00
54038;BME280;39954;48.844;9.726;2023-07-13T01:58:31;96075.34;;;15.37;100.00
54038;BME280;39954;48.844;9.726;2023-07-13T01:59:33;96083.69;;;15.31;100.00
54038;BME280;39954;48.844;9.726;2023-07-13T02:00:37;96075.81;;;15.31;100.00
54038;BME280;39954;48.844;9.726;2023-07-13T02:01:40;96077.50;;;15.32;100.00
54038;BME280;39954;48.844;9.726;2023-07-13T02:02:45;96077.50;;;15.32;100.00
54038;BME280;39954;48.844;9.726;2023-07-13T02:03:47;96073.09;;;15.33;100.00
54038;BME280;39954;48.844;9.726;2023-07-13T02:04:53;96070.47;;;15.33;100.00
54038;BME280;39954;48.844;9.726;2023-07-13T02:05:55;96069.25;;;15.26;100.00
54038;BME280;39954;48.844;9.726;2023-07-13T02:07:03;96070.81;;;15.28;100.00
54038;BME280;39954;48.844;9.726;2023-07-13T02:08:05;96069.16;;;15.27;100.00
54038;BME280;39954;48.844;9.726;2023-07-13T02:09:10;96065.81;;;15.25;100.00
54038;BME280;39954;48.844;9.726;2023-07-13T02:10:12;96078.66;;;15.17;100.00
54038;BME280;39954;48.844;9.726;2023-07-13T02:11:17;96076.50;;;15.11;100.00
54038;BME280;39954;48.844;9.726;2023-07-13T02:12:19;96078.28;;;15.10;100.00
54038;BME280;39954;48.844;9.726;2023-07-13T02:13:24;96080.19;;;15.08;100.00
54038;BME280;39954;48.844;9.726;2023-07-13T02:14:26;96078.13;;;15.00;100.00
54038;BME280;39954;48.844;9.726;2023-07-13T02:15:31;96084.81;;;15.05;100.00
54038;BME280;39954;48.844;9.726;2023-07-13T02:16:33;96083.13;;;15.04;100.00
54038;BME280;39954;48.844;9.726;2023-07-13T02:17:38;96083.13;;;15.04;100.00
54038;BME280;39954;48.844;9.726;2023-07-13T02:18:40;96085.16;;;15.00;100.00
54038;BME280;39954;48.844;9.726;2023-07-13T02:19:45;96092.28;;;14.98;100.00
54038;BME280;39954;48.844;9.726;2023-07-13T02:20:47;96092.13;;;14.88;100.00
54038;BME280;39954;48.844;9.726;2023-07-13T02:21:52;96098.53;;;14.84;100.00
54038;BME280;39954;48.844;9.726;2023-07-13T02:22:57;96095.66;;;14.76;100.00
54038;BME280;39954;48.844;9.726;2023-07-13T02:24:02;96093.88;;;14.76;100.00
54038;BME280;39954;48.844;9.726;2023-07-13T02:25:05;96095.03;;;14.72;100.00
54038;BME280;39954;48.844;9.726;2023-07-13T02:26:10;96101.31;;;14.70;100.00
54038;BME280;39954;48.844;9.726;2023-07-13T02:27:13;96094.66;;;14.66;100.00
54038;BME280;39954;48.844;9.726;2023-07-13T02:28:17;96102.13;;;14.59;100.00
54038;BME280;39954;48.844;9.726;2023-07-13T02:29:20;96099.09;;;14.52;100.00
54038;BME280;39954;48.844;9.726;2023-07-13T02:30:24;96092.63;;;14.45;100.00
54038;BME280;39954;48.844;9.726;2023-07-13T02:31:27;96094.72;;;14.40;100.00
54038;BME280;39954;48.844;9.726;2023-07-13T02:32:31;96095.28;;;14.32;100.00
54038;BME280;39954;48.844;9.726;2023-07-13T02:33:34;96102.00;;;14.24;100.00
54038;BME280;39954;48.844;9.726;2023-07-13T02:34:40;96095.59;;;14.28;100.00
54038;BME280;39954;48.844;9.726;2023-07-13T02:35:42;96092.97;;;14.28;100.00
54038;BME280;39954;48.844;9.726;2023-07-13T02:36:47;96098.13;;;14.29;100.00
54038;BME280;39954;48.844;9.726;2023-07-13T02:37:49;96100.00;;;14.27;100.00
54038;BME280;39954;48.844;9.726;2023-07-13T02:38:57;96098.56;;;14.23;100.00
54038;BME280;39954;48.844;9.726;2023-07-13T02:40:00;96096.47;;;14.16;100.00
54038;BME280;39954;48.844;9.726;2023-07-13T02:41:10;96093.47;;;14.09;100.00
54038;BME280;39954;48.844;9.726;2023-07-13T02:42:12;96099.75;;;14.06;100.00
54038;BME280;39954;48.844;9.726;2023-07-13T02:43:17;96091.97;;;14.18;100.00
54038;BME280;39954;48.844;9.726;2023-07-13T02:44:19;96096.25;;;14.19;100.00
54038;BME280;39954;48.844;9.726;2023-07-13T02:45:23;96095.50;;;14.29;100.00
54038;BME280;39954;48.844;9.726;2023-07-13T02:46:26;96087.06;;;14.26;100.00
54038;BME280;39954;48.844;9.726;2023-07-13T02:47:32;96092.97;;;14.28;100.00
54038;BME280;39954;48.844;9.726;2023-07-13T02:48:34;96090.19;;;14.18;100.00
54038;BME280;39954;48.844;9.726;2023-07-13T02:49:39;96090.53;;;14.14;100.00
54038;BME280;39954;48.844;9.726;2023-07-13T02:50:41;96096.25;;;14.19;100.00
54038;BME280;39954;48.844;9.726;2023-07-13T02:51:46;96092.22;;;14.15;100.00
54038;BME280;39954;48.844;9.726;2023-07-13T02:52:49;96088.47;;;14.06;100.00
54038;BME280;39954;48.844;9.726;2023-07-13T02:53:56;96087.94;;;14.01;100.00
54038;BME280;39954;48.844;9.726;2023-07-13T02:54:58;96090.06;;;13.96;100.00
54038;BME280;39954;48.844;9.726;2023-07-13T02:56:04;96098.19;;;13.91;100.00
54038;BME280;39954;48.844;9.726;2023-07-13T02:57:06;96088.25;;;13.96;100.00
54038;BME280;39954;48.844;9.726;2023-07-13T02:58:11;96098.81;;;13.95;100.00
54038;BME280;39954;48.844;9.726;2023-07-13T02:59:13;96090.88;;;13.96;100.00
54038;BME280;39954;48.844;9.726;2023-07-13T03:00:18;96093.41;;;13.98;100.00
54038;BME280;39954;48.844;9.726;2023-07-13T03:01:21;96086.38;;;13.98;100.00
54038;BME280;39954;48.844;9.726;2023-07-13T03:02:24;96099.66;;;13.95;100.00
54038;BME280;39954;48.844;9.726;2023-07-13T03:03:30;96098.19;;;13.91;100.00
54038;BME280;39954;48.844;9.726;2023-07-13T03:04:32;96097.16;;;13.94;100.00
54038;BME280;39954;48.844;9.726;2023-07-13T03:05:34;96108.44;;;13.94;100.00
54038;BME280;39954;48.844;9.726;2023-07-13T03:06:39;96106.16;;;13.90;100.00
54038;BME280;39954;48.844;9.726;2023-07-13T03:07:41;96105.50;;;13.86;100.00
54038;BME280;39954;48.844;9.726;2023-07-13T03:08:47;96099.06;;;13.79;100.00
54038;BME280;39954;48.844;9.726;2023-07-13T03:09:56;96104.50;;;13.76;100.00
54038;BME280;39954;48.844;9.726;2023-07-13T03:11:02;96100.84;;;13.78;100.00
54038;BME280;39954;48.844;9.726;2023-07-13T03:12:06;96098.09;;;13.80;100.00
54038;BME280;39954;48.844;9.726;2023-07-13T03:13:11;96098.09;;;13.93;100.00
54038;BME280;39954;48.844;9.726;2023-07-13T03:14:13;96098.63;;;13.98;100.00
54038;BME280;39954;48.844;9.726;2023-07-13T03:15:18;96107.50;;;13.95;100.00
54038;BME280;39954;48.844;9.726;2023-07-13T03:16:21;96106.78;;;13.93;100.00
54038;BME280;39954;48.844;9.726;2023-07-13T03:17:26;96103.00;;;13.97;100.00
54038;BME280;39954;48.844;9.726;2023-07-13T03:18:28;96105.81;;;13.94;100.00
54038;BME280;39954;48.844;9.726;2023-07-13T03:19:33;96108.88;;;13.88;100.00
54038;BME280;39954;48.844;9.726;2023-07-13T03:20:35;96105.72;;;13.83;100.00
54038;BME280;39954;48.844;9.726;2023-07-13T03:21:40;96106.06;;;13.78;100.00
54038;BME280;39954;48.844;9.726;2023-07-13T03:22:42;96116.09;;;13.72;100.00
54038;BME280;39954;48.844;9.726;2023-07-13T03:23:47;96113.06;;;13.65;100.00
54038;BME280;39954;48.844;9.726;2023-07-13T03:24:49;96112.25;;;13.64;100.00
54038;BME280;39954;48.844;9.726;2023-07-13T03:26:05;96117.69;;;13.61;100.00
54038;BME280;39954;48.844;9.726;2023-07-13T03:27:08;96114.72;;;13.66;100.00
54038;BME280;39954;48.844;9.726;2023-07-13T03:28:13;96115.06;;;13.61;100.00
54038;BME280;39954;48.844;9.726;2023-07-13T03:29:15;96115.38;;;13.70;100.00
54038;BME280;39954;48.844;9.726;2023-07-13T03:30:20;96104.59;;;13.74;100.00
54038;BME280;39954;48.844;9.726;2023-07-13T03:31:25;96117.66;;;13.87;100.00
54038;BME280;39954;48.844;9.726;2023-07-13T03:32:27;96113.91;;;13.78;100.00
54038;BME280;39954;48.844;9.726;2023-07-13T03:33:32;96113.16;;;13.76;100.00
54038;BME280;39954;48.844;9.726;2023-07-13T03:34:34;96113.25;;;13.75;100.00
54038;BME280;39954;48.844;9.726;2023-07-13T03:35:40;96112.44;;;13.74;100.00
54038;BME280;39954;48.844;9.726;2023-07-13T03:36:42;96121.63;;;13.80;100.00
54038;BME280;39954;48.844;9.726;2023-07-13T03:37:47;96110.78;;;13.73;100.00
54038;BME280;39954;48.844;9.726;2023-07-13T03:38:52;96117.03;;;13.71;100.00
54038;BME280;39954;48.844;9.726;2023-07-13T03:39:57;96114.72;;;13.66;100.00
54038;BME280;39954;48.844;9.726;2023-07-13T03:40:59;96121.00;;;13.63;100.00
54038;BME280;39954;48.844;9.726;2023-07-13T03:42:07;96124.56;;;13.62;100.00
54038;BME280;39954;48.844;9.726;2023-07-13T03:43:09;96128.13;;;13.61;100.00
54038;BME280;39954;48.844;9.726;2023-07-13T03:44:15;96123.94;;;13.59;100.00
54038;BME280;39954;48.844;9.726;2023-07-13T03:45:18;96128.41;;;13.57;100.00
54038;BME280;39954;48.844;9.726;2023-07-13T03:46:23;96130.00;;;13.59;100.00
54038;BME280;39954;48.844;9.726;2023-07-13T03:47:26;96133.56;;;13.58;100.00
54038;BME280;39954;48.844;9.726;2023-07-13T03:48:30;96135.22;;;13.59;100.00
54038;BME280;39954;48.844;9.726;2023-07-13T03:49:33;96136.88;;;13.60;100.00
54038;BME280;39954;48.844;9.726;2023-07-13T03:50:37;96136.66;;;13.63;100.00
54038;BME280;39954;48.844;9.726;2023-07-13T03:51:40;96140.22;;;13.62;100.00
54038;BME280;39954;48.844;9.726;2023-07-13T03:52:45;96134.06;;;13.63;100.00
54038;BME280;39954;48.844;9.726;2023-07-13T03:53:47;96139.19;;;13.65;100.00
54038;BME280;39954;48.844;9.726;2023-07-13T03:54:52;96142.53;;;13.67;100.00
54038;BME280;39954;48.844;9.726;2023-07-13T03:55:54;96137.94;;;13.71;100.00
54038;BME280;39954;48.844;9.726;2023-07-13T03:56:57;96147.34;;;13.73;100.00
54038;BME280;39954;48.844;9.726;2023-07-13T03:58:29;96143.56;;;13.77;100.00
54038;BME280;39954;48.844;9.726;2023-07-13T03:59:32;96141.91;;;13.76;100.00
54038;BME280;39954;48.844;9.726;2023-07-13T04:00:37;96149.59;;;13.78;100.00
54038;BME280;39954;48.844;9.726;2023-07-13T04:01:39;96144.19;;;13.81;100.00
54038;BME280;39954;48.844;9.726;2023-07-13T04:02:44;96147.53;;;13.83;100.00
54038;BME280;39954;48.844;9.726;2023-07-13T04:03:48;96144.38;;;13.91;100.00
54038;BME280;39954;48.844;9.726;2023-07-13T04:04:51;96147.53;;;13.96;100.00
54038;BME280;39954;48.844;9.726;2023-07-13T04:05:56;96149.09;;;13.98;100.00
54038;BME280;39954;48.844;9.726;2023-07-13T04:07:01;96152.31;;;14.02;100.00
54038;BME280;39954;48.844;9.726;2023-07-13T04:08:06;96146.88;;;14.05;100.00
54038;BME280;39954;48.844;9.726;2023-07-13T04:09:09;96152.72;;;14.08;100.00
54038;BME280;39954;48.844;9.726;2023-07-13T04:10:14;96145.41;;;14.14;100.00
54038;BME280;39954;48.844;9.726;2023-07-13T04:11:16;96152.94;;;14.18;100.00
54038;BME280;39954;48.844;9.726;2023-07-13T04:12:19;96153.31;;;14.25;100.00
54038;BME280;39954;48.844;9.726;2023-07-13T04:13:24;96153.31;;;14.38;100.00
54038;BME280;39954;48.844;9.726;2023-07-13T04:14:29;96161.00;;;14.39;100.00
54038;BME280;39954;48.844;9.726;2023-07-13T04:15:38;96165.84;;;14.45;100.00
54038;BME280;39954;48.844;9.726;2023-07-13T04:16:41;96150.63;;;14.50;100.00
54038;BME280;39954;48.844;9.726;2023-07-13T04:17:46;96151.41;;;14.52;100.00
54038;BME280;39954;48.844;9.726;2023-07-13T04:18:48;96152.00;;;14.56;100.00
54038;BME280;39954;48.844;9.726;2023-07-13T04:19:56;96149.06;;;14.61;100.00
54038;BME280;39954;48.844;9.726;2023-07-13T04:20:59;96150.03;;;14.60;100.00
54038;BME280;39954;48.844;9.726;2023-07-13T04:22:04;96154.31;;;14.61;100.00
54038;BME280;39954;48.844;9.726;2023-07-13T04:23:06;96153.34;;;14.62;100.00
54038;BME280;39954;48.844;9.726;2023-07-13T04:24:09;96147.19;;;14.63;100.00
54038;BME280;39954;48.844;9.726;2023-07-13T04:25:13;96158.25;;;14.66;100.00
54038;BME280;39954;48.844;9.726;2023-07-13T04:26:16;96156.25;;;14.70;100.00
54038;BME280;39954;48.844;9.726;2023-07-13T04:27:22;96155.09;;;14.74;100.00
54038;BME280;39954;48.844;9.726;2023-07-13T04:28:26;96151.94;;;14.82;100.00
54038;BME280;39954;48.844;9.726;2023-07-13T04:29:34;96156.81;;;14.86;100.00
54038;BME280;39954;48.844;9.726;2023-07-13T04:30:36;96160.44;;;14.96;100.00
54038;BME280;39954;48.844;9.726;2023-07-13T04:31:41;96156.84;;;14.97;100.00
54038;BME280;39954;48.844;9.726;2023-07-13T04:32:43;96165.66;;;14.96;100.00
54038;BME280;39954;48.844;9.726;2023-07-13T04:33:48;96165.66;;;14.96;100.00
54038;BME280;39954;48.844;9.726;2023-07-13T04:34:51;96166.28;;;15.00;100.00
54038;BME280;39954;48.844;9.726;2023-07-13T04:35:57;96165.22;;;15.03;100.00
54038;BME280;39954;48.844;9.726;2023-07-13T04:37:01;96162.50;;;15.04;100.00
54038;BME280;39954;48.844;9.726;2023-07-13T04:38:06;96165.81;;;15.06;100.00
54038;BME280;39954;48.844;9.726;2023-07-13T04:39:08;96166.44;;;15.10;100.00
54038;BME280;39954;48.844;9.726;2023-07-13T04:40:13;96168.09;;;15.11;100.00
54038;BME280;39954;48.844;9.726;2023-07-13T04:41:16;96166.91;;;15.15;100.00
54038;BME280;39954;48.844;9.726;2023-07-13T04:42:21;96167.66;;;15.17;100.00
54038;BME280;39954;48.844;9.726;2023-07-13T04:43:23;96168.38;;;15.19;100.00
54038;BME280;39954;48.844;9.726;2023-07-13T04:44:26;96170.75;;;15.22;100.00
54038;BME280;39954;48.844;9.726;2023-07-13T04:45:35;96169.69;;;15.25;100.00
54038;BME280;39954;48.844;9.726;2023-07-13T04:46:37;96172.00;;;15.29;100.00
54038;BME280;39954;48.844;9.726;2023-07-13T04:47:42;96173.75;;;15.29;100.00
54038;BME280;39954;48.844;9.726;2023-07-13T04:48:45;96170.91;;;15.32;100.00
54038;BME280;39954;48.844;9.726;2023-07-13T04:49:49;96166.06;;;15.38;100.00
54038;BME280;39954;48.844;9.726;2023-07-13T04:50:55;96169.41;;;15.40;100.00
54038;BME280;39954;48.844;9.726;2023-07-13T04:51:57;96172.50;;;15.45;100.00
54038;BME280;39954;48.844;9.726;2023-07-13T04:53:02;96167.03;;;15.49;100.00
54038;BME280;39954;48.844;9.726;2023-07-13T04:54:05;96162.41;;;15.52;100.00
54038;BME280;39954;48.844;9.726;2023-07-13T04:55:10;96165.53;;;15.57;100.00
54038;BME280;39954;48.844;9.726;2023-07-13T04:56:12;96159.91;;;15.62;100.00
54038;BME280;39954;48.844;9.726;2023-07-13T04:57:17;96161.66;;;15.74;100.00
54038;BME280;39954;48.844;9.726;2023-07-13T04:58:20;96163.13;;;15.65;100.00
54038;BME280;39954;48.844;9.726;2023-07-13T04:59:26;96154.97;;;15.70;100.00
54038;BME280;39954;48.844;9.726;2023-07-13T05:00:29;96157.97;;;15.77;100.00
54038;BME280;39954;48.844;9.726;2023-07-13T05:01:36;96155.44;;;15.75;100.00
54038;BME280;39954;48.844;9.726;2023-07-13T05:02:39;96159.63;;;15.78;100.00
54038;BME280;39954;48.844;9.726;2023-07-13T05:03:44;96161.19;;;15.80;100.00
54038;BME280;39954;48.844;9.726;2023-07-13T05:04:46;96159.28;;;15.82;100.00
54038;BME280;39954;48.844;9.726;2023-07-13T05:05:55;96158.31;;;15.83;100.00
54038;BME280;39954;48.844;9.726;2023-07-13T05:06:58;96161.44;;;15.88;100.00
54038;BME280;39954;48.844;9.726;2023-07-13T05:08:03;96159.63;;;15.89;100.00
54038;BME280;39954;48.844;9.726;2023-07-13T05:09:06;96162.97;;;15.91;100.00
54038;BME280;39954;48.844;9.726;2023-07-13T05:10:11;96161.06;;;15.93;100.00
54038;BME280;39954;48.844;9.726;2023-07-13T05:11:13;96168.09;;;15.93;100.00
54038;BME280;39954;48.844;9.726;2023-07-13T05:12:17;96170.72;;;15.93;100.00
54038;BME280;39954;48.844;9.726;2023-07-13T05:13:20;96167.38;;;15.91;100.00
54038;BME280;39954;48.844;9.726;2023-07-13T05:14:28;96170.22;;;15.87;100.00
54038;BME280;39954;48.844;9.726;2023-07-13T05:15:30;96173.56;;;15.89;100.00
54038;BME280;39954;48.844;9.726;2023-07-13T05:16:40;96175.03;;;15.94;100.00
54038;BME280;39954;48.844;9.726;2023-07-13T05:17:42;96170.00;;;16.02;100.00
54038;BME280;39954;48.844;9.726;2023-07-13T05:18:47;96168.09;;;16.04;100.00
54038;BME280;39954;48.844;9.726;2023-07-13T05:19:49;96168.09;;;16.04;100.00
54038;BME280;39954;48.844;9.726;2023-07-13T05:21:01;96170.84;;;16.02;100.00
54038;BME280;39954;48.844;9.726;2023-07-13T05:22:04;96170.84;;;16.02;100.00
54038;BME280;39954;48.844;9.726;2023-07-13T05:23:09;96177.16;;;16.00;100.00
54038;BME280;39954;48.844;9.726;2023-07-13T05:24:12;96174.16;;;16.04;100.00
54038;BME280;39954;48.844;9.726;2023-07-13T05:25:26;96180.72;;;16.10;100.00
54038;BME280;39954;48.844;9.726;2023-07-13T05:26:28;96173.34;;;16.15;100.00
54038;BME280;39954;48.844;9.726;2023-07-13T05:27:34;96177.84;;;16.24;100.00
54038;BME280;39954;48.844;9.726;2023-07-13T05:28:36;96180.03;;;16.30;100.00
54038;BME280;39954;48.844;9.726;2023-07-13T05:29:41;96176.19;;;16.34;100.00
54038;BME280;39954;48.844;9.726;2023-07-13T05:30:45;96175.59;;;16.42;100.00
54038;BME280;39954;48.844;9.726;2023-07-13T05:31:54;96173.56;;;16.46;100.00
54038;BME280;39954;48.844;9.726;2023-07-13T05:32:57;96170.00;;;16.47;100.00
54038;BME280;39954;48.844;9.726;2023-07-13T05:34:02;96170.22;;;16.44;100.00
54038;BME280;39954;48.844;9.726;2023-07-13T05:35:05;96168.31;;;16.46;100.00
54038;BME280;39954;48.844;9.726;2023-07-13T05:36:10;96172.63;;;16.47;100.00
54038;BME280;39954;48.844;9.726;2023-07-13T05:37:12;96176.19;;;16.34;100.00
54038;BME280;39954;48.844;9.726;2023-07-13T05:38:16;96177.16;;;16.45;100.00
54038;BME280;39954;48.844;9.726;2023-07-13T05:39:19;96171.53;;;16.49;100.00
54038;BME280;39954;48.844;9.726;2023-07-13T05:40:21;96176.56;;;16.41;100.00
54038;BME280;39954;48.844;9.726;2023-07-13T05:41:26;96176.91;;;16.48;100.00